sensor_id;sensor_type;location;lat;lon;timestamp;pressure;altitude;pressure_sealevel;temperature;humidity
72024;BME280;59889;50.700;5.440;2022-09-20T00:01:05;100736.84;;;23.45;30.09
72024;BME280;59889;50.700;5.440;2022-09-20T00:03:32;100735.45;;;23.37;30.21
72024;BME280;59889;50.700;5.440;2022-09-20T00:05:47;100736.62;;;23.36;30.21
72024;BME280;59889;50.700;5.440;2022-09-20T00:08:14;100734.79;;;23.36;30.20
72024;BME280;59889;50.700;5.440;2022-09-20T00:10:37;100739.82;;;23.40;30.18
72024;BME280;59889;50.700;5.440;2022-09-20T00:13:03;100739.36;;;23.54;30.29
72024;BME280;59889;50.700;5.440;2022-09-20T00:15:27;100739.20;;;23.57;30.25
72024;BME280;59889;50.700;5.440;2022-09-20T00:17:52;100736.76;;;23.53;30.27
72024;BME280;59889;50.700;5.440;2022-09-20T00:20:17;100738.20;;;23.68;30.14
72024;BME280;59889;50.700;5.440;2022-09-20T00:22:42;100736.61;;;23.44;30.06
72024;BME280;59889;50.700;5.440;2022-09-20T00:25:09;100730.42;;;23.38;30.20
72024;BME280;59889;50.700;5.440;2022-09-20T00:27:42;100733.44;;;23.40;30.16
72024;BME280;59889;50.700;5.440;2022-09-20T00:30:12;100734.33;;;23.48;30.10
72024;BME280;59889;50.700;5.440;2022-09-20T00:32:32;100731.31;;;23.39;30.18
72024;BME280;59889;50.700;5.440;2022-09-20T00:34:47;100733.96;;;23.74;30.05
72024;BME280;59889;50.700;5.440;2022-09-20T00:37:12;100734.89;;;23.69;30.12
72024;BME280;59889;50.700;5.440;2022-09-20T00:39:37;100734.76;;;23.72;30.08
72024;BME280;59889;50.700;5.440;2022-09-20T00:42:03;100737.35;;;23.28;30.32
72024;BME280;59889;50.700;5.440;2022-09-20T00:44:40;100736.36;;;23.89;30.13
72024;BME280;59889;50.700;5.440;2022-09-20T00:46:52;100731.32;;;23.34;30.22
72024;BME280;59889;50.700;5.440;2022-09-20T00:49:28;100728.44;;;23.69;30.11
72024;BME280;59889;50.700;5.440;2022-09-20T00:51:46;100727.33;;;23.29;30.30
72024;BME280;59889;50.700;5.440;2022-09-20T00:54:09;100725.76;;;23.60;30.20
72024;BME280;59889;50.700;5.440;2022-09-20T00:56:35;100723.77;;;23.70;30.13
72024;BME280;59889;50.700;5.440;2022-09-20T00:59:03;100724.71;;;23.91;30.14
72024;BME280;59889;50.700;5.440;2022-09-20T01:01:27;100727.51;;;23.36;30.22
72024;BME280;59889;50.700;5.440;2022-09-20T01:03:48;100727.23;;;23.33;30.25
72024;BME280;59889;50.700;5.440;2022-09-20T01:06:14;100728.19;;;23.49;30.03
72024;BME280;59889;50.700;5.440;2022-09-20T01:08:38;100728.58;;;23.40;30.18
72024;BME280;59889;50.700;5.440;2022-09-20T01:11:03;100729.65;;;23.50;30.06
72024;BME280;59889;50.700;5.440;2022-09-20T01:13:28;100729.25;;;23.48;30.07
72024;BME280;59889;50.700;5.440;2022-09-20T01:15:53;100729.74;;;23.43;30.15
72024;BME280;59889;50.700;5.440;2022-09-20T01:18:18;100726.37;;;23.53;30.04
72024;BME280;59889;50.700;5.440;2022-09-20T01:20:44;100724.25;;;23.33;30.27
72024;BME280;59889;50.700;5.440;2022-09-20T01:23:20;100723.91;;;23.41;30.16
72024;BME280;59889;50.700;5.440;2022-09-20T01:25:51;100725.09;;;23.56;30.00
72024;BME280;59889;50.700;5.440;2022-09-20T01:28:00;100723.21;;;23.59;29.99
72024;BME280;59889;50.700;5.440;2022-09-20T01:30:24;100724.67;;;23.70;30.11
72024;BME280;59889;50.700;5.440;2022-09-20T01:32:57;100726.41;;;23.83;30.24
72024;BME280;59889;50.700;5.440;2022-09-20T01:35:14;100725.59;;;23.34;30.27
72024;BME280;59889;50.700;5.440;2022-09-20T01:38:00;100724.00;;;23.39;30.19
72024;BME280;59889;50.700;5.440;2022-09-20T01:40:10;100722.39;;;23.41;30.20
72024;BME280;59889;50.700;5.440;2022-09-20T01:42:32;100722.62;;;23.59;30.27
72024;BME280;59889;50.700;5.440;2022-09-20T01:45:00;100720.35;;;23.36;30.23
72024;BME280;59889;50.700;5.440;2022-09-20T01:47:25;100715.73;;;23.47;30.12
72024;BME280;59889;50.700;5.440;2022-09-20T01:49:49;100716.85;;;23.71;30.12
72024;BME280;59889;50.700;5.440;2022-09-20T01:52:28;100718.06;;;23.34;30.26
72024;BME280;59889;50.700;5.440;2022-09-20T01:54:44;100718.83;;;23.73;30.09
72024;BME280;59889;50.700;5.440;2022-09-20T02:02:05;100722.86;;;23.57;30.01
72024;BME280;59889;50.700;5.440;2022-09-20T02:04:35;100719.73;;;23.45;30.15
72024;BME280;59889;50.700;5.440;2022-09-20T02:06:50;100715.17;;;23.42;30.17
72024;BME280;59889;50.700;5.440;2022-09-20T02:09:16;100715.46;;;23.55;30.01
72024;BME280;59889;50.700;5.440;2022-09-20T02:11:51;100715.02;;;23.55;30.02
72024;BME280;59889;50.700;5.440;2022-09-20T02:14:03;100715.78;;;23.49;30.06
72024;BME280;59889;50.700;5.440;2022-09-20T02:16:30;100716.55;;;23.36;30.24
72024;BME280;59889;50.700;5.440;2022-09-20T02:18:55;100713.59;;;23.78;30.02
72024;BME280;59889;50.700;5.440;2022-09-20T02:21:27;100712.08;;;23.61;30.23
72024;BME280;59889;50.700;5.440;2022-09-20T02:23:42;100708.83;;;23.43;30.16
72024;BME280;59889;50.700;5.440;2022-09-20T02:26:08;100706.01;;;23.40;30.17
72024;BME280;59889;50.700;5.440;2022-09-20T02:28:34;100707.97;;;23.50;30.10
72024;BME280;59889;50.700;5.440;2022-09-20T02:30:55;100710.01;;;23.52;30.04
72024;BME280;59889;50.700;5.440;2022-09-20T02:33:31;100712.96;;;23.69;30.14
72024;BME280;59889;50.700;5.440;2022-09-20T02:35:49;100713.31;;;23.72;30.12
72024;BME280;59889;50.700;5.440;2022-09-20T02:38:15;100712.99;;;23.41;30.17
72024;BME280;59889;50.700;5.440;2022-09-20T02:40:43;100716.63;;;23.54;30.02
72024;BME280;59889;50.700;5.440;2022-09-20T02:43:02;100717.82;;;23.52;30.05
72024;BME280;59889;50.700;5.440;2022-09-20T02:45:24;100718.56;;;23.37;30.22
72024;BME280;59889;50.700;5.440;2022-09-20T02:47:44;100714.51;;;23.46;30.13
72024;BME280;59889;50.700;5.440;2022-09-20T02:50:17;100716.13;;;23.45;30.10
72024;BME280;59889;50.700;5.440;2022-09-20T02:52:39;100715.50;;;23.30;30.23
72024;BME280;59889;50.700;5.440;2022-09-20T02:55:06;100717.43;;;23.41;30.16
72024;BME280;59889;50.700;5.440;2022-09-20T02:57:32;100717.67;;;23.37;30.19
72024;BME280;59889;50.700;5.440;2022-09-20T02:59:55;100720.57;;;23.44;30.14
72024;BME280;59889;50.700;5.440;2022-09-20T03:02:21;100717.05;;;23.49;30.10
72024;BME280;59889;50.700;5.440;2022-09-20T03:07:11;100709.74;;;23.45;30.19
72024;BME280;59889;50.700;5.440;2022-09-20T03:09:37;100707.52;;;23.46;30.12
72024;BME280;59889;50.700;5.440;2022-09-20T03:12:03;100701.12;;;23.37;30.20
72024;BME280;59889;50.700;5.440;2022-09-20T03:14:24;100705.05;;;23.41;30.18
72024;BME280;59889;50.700;5.440;2022-09-20T03:16:56;100701.04;;;23.33;30.26
72024;BME280;59889;50.700;5.440;2022-09-20T03:19:17;100694.93;;;23.34;30.25
72024;BME280;59889;50.700;5.440;2022-09-20T03:21:49;100693.96;;;23.33;30.26
72024;BME280;59889;50.700;5.440;2022-09-20T03:24:08;100689.25;;;23.34;30.26
72024;BME280;59889;50.700;5.440;2022-09-20T03:26:34;100688.92;;;23.63;30.19
72024;BME280;59889;50.700;5.440;2022-09-20T03:28:58;100692.83;;;23.51;30.09
72024;BME280;59889;50.700;5.440;2022-09-20T03:31:23;100698.10;;;23.28;30.33
72024;BME280;59889;50.700;5.440;2022-09-20T03:33:46;100698.63;;;23.46;30.09
72024;BME280;59889;50.700;5.440;2022-09-20T03:36:15;100700.23;;;23.37;30.25
72024;BME280;59889;50.700;5.440;2022-09-20T03:38:41;100704.52;;;23.71;30.13
72024;BME280;59889;50.700;5.440;2022-09-20T03:41:16;100709.85;;;23.41;30.16
72024;BME280;59889;50.700;5.440;2022-09-20T03:43:29;100716.31;;;23.29;30.26
72024;BME280;59889;50.700;5.440;2022-09-20T03:48:32;100719.84;;;23.39;30.18
72024;BME280;59889;50.700;5.440;2022-09-20T03:50:43;100720.77;;;23.42;30.16
72024;BME280;59889;50.700;5.440;2022-09-20T03:53:16;100719.89;;;23.41;30.15
72024;BME280;59889;50.700;5.440;2022-09-20T03:57:57;100721.57;;;23.53;30.02
72024;BME280;59889;50.700;5.440;2022-09-20T04:00:21;100722.56;;;23.53;30.06
72024;BME280;59889;50.700;5.440;2022-09-20T04:02:58;100721.04;;;23.48;30.09
72024;BME280;59889;50.700;5.440;2022-09-20T04:05:09;100716.19;;;23.41;30.19
72024;BME280;59889;50.700;5.440;2022-09-20T04:07:38;100715.91;;;23.46;30.09
72024;BME280;59889;50.700;5.440;2022-09-20T04:10:05;100715.15;;;23.51;30.02
72024;BME280;59889;50.700;5.440;2022-09-20T04:12:27;100713.86;;;23.44;30.12
72024;BME280;59889;50.700;5.440;2022-09-20T04:14:52;100713.95;;;23.42;30.19
72024;BME280;59889;50.700;5.440;2022-09-20T04:17:21;100713.77;;;23.47;30.16
72024;BME280;59889;50.700;5.440;2022-09-20T04:19:40;100715.06;;;23.44;30.17
72024;BME280;59889;50.700;5.440;2022-09-20T04:22:01;100712.57;;;23.38;30.16
72024;BME280;59889;50.700;5.440;2022-09-20T04:24:36;100711.36;;;23.53;30.31
72024;BME280;59889;50.700;5.440;2022-09-20T04:29:26;100711.50;;;23.30;30.31
72024;BME280;59889;50.700;5.440;2022-09-20T04:31:46;100708.36;;;23.36;30.22
72024;BME280;59889;50.700;5.440;2022-09-20T04:34:12;100710.11;;;23.54;30.04
72024;BME280;59889;50.700;5.440;2022-09-20T04:36:45;100711.92;;;23.35;30.23
72024;BME280;59889;50.700;5.440;2022-09-20T04:39:05;100712.31;;;23.44;30.14
72024;BME280;59889;50.700;5.440;2022-09-20T04:41:31;100714.45;;;23.68;30.14
72024;BME280;59889;50.700;5.440;2022-09-20T04:44:04;100713.91;;;23.33;30.27
72024;BME280;59889;50.700;5.440;2022-09-20T04:46:31;100714.95;;;23.85;30.20
72024;BME280;59889;50.700;5.440;2022-09-20T04:48:58;100717.90;;;23.52;30.04
72024;BME280;59889;50.700;5.440;2022-09-20T04:53:40;100719.11;;;23.82;30.01
72024;BME280;59889;50.700;5.440;2022-09-20T04:55:54;100717.87;;;23.38;30.16
72024;BME280;59889;50.700;5.440;2022-09-20T04:58:32;100725.62;;;23.63;30.17
72024;BME280;59889;50.700;5.440;2022-09-20T05:03:42;100729.32;;;23.45;30.08
72024;BME280;59889;50.700;5.440;2022-09-20T05:05:48;100727.93;;;23.49;30.10
72024;BME280;59889;50.700;5.440;2022-09-20T05:10:35;100724.91;;;23.28;31.23
72024;BME280;59889;50.700;5.440;2022-09-20T05:13:03;100728.38;;;23.26;31.53
72024;BME280;59889;50.700;5.440;2022-09-20T05:15:22;100732.70;;;23.06;31.47
72024;BME280;59889;50.700;5.440;2022-09-20T05:17:45;100733.81;;;23.03;31.47
72024;BME280;59889;50.700;5.440;2022-09-20T05:20:22;100735.08;;;22.99;31.53
72024;BME280;59889;50.700;5.440;2022-09-20T05:22:43;100736.93;;;23.10;31.35
72024;BME280;59889;50.700;5.440;2022-09-20T05:25:05;100740.31;;;23.03;31.47
72024;BME280;59889;50.700;5.440;2022-09-20T05:27:28;100743.67;;;23.23;31.59
72024;BME280;59889;50.700;5.440;2022-09-20T05:29:48;100744.97;;;23.18;31.72
72024;BME280;59889;50.700;5.440;2022-09-20T05:32:11;100750.56;;;23.42;31.75
72024;BME280;59889;50.700;5.440;2022-09-20T05:34:37;100750.10;;;23.08;31.85
72024;BME280;59889;50.700;5.440;2022-09-20T05:37:03;100752.62;;;22.84;31.77
72024;BME280;59889;50.700;5.440;2022-09-20T05:39:32;100753.76;;;23.33;31.72
72024;BME280;59889;50.700;5.440;2022-09-20T05:42:06;100755.02;;;23.10;31.70
72024;BME280;59889;50.700;5.440;2022-09-20T05:44:23;100756.67;;;22.79;31.81
72024;BME280;59889;50.700;5.440;2022-09-20T05:47:02;100759.24;;;23.28;31.78
72024;BME280;59889;50.700;5.440;2022-09-20T05:49:11;100763.13;;;22.92;31.65
72024;BME280;59889;50.700;5.440;2022-09-20T05:51:35;100767.68;;;23.05;31.75
72024;BME280;59889;50.700;5.440;2022-09-20T05:54:06;100767.27;;;22.99;31.82
72024;BME280;59889;50.700;5.440;2022-09-20T05:56:24;100767.01;;;23.09;31.69
72024;BME280;59889;50.700;5.440;2022-09-20T05:58:51;100763.85;;;22.96;31.78
72024;BME280;59889;50.700;5.440;2022-09-20T06:01:12;100769.43;;;22.65;31.86
72024;BME280;59889;50.700;5.440;2022-09-20T06:03:38;100765.20;;;22.71;31.79
72024;BME280;59889;50.700;5.440;2022-09-20T06:06:03;100763.93;;;22.42;31.80
72024;BME280;59889;50.700;5.440;2022-09-20T06:08:32;100767.93;;;22.76;31.69
72024;BME280;59889;50.700;5.440;2022-09-20T06:13:23;100772.19;;;22.85;31.80
72024;BME280;59889;50.700;5.440;2022-09-20T06:15:44;100767.95;;;22.67;31.71
72024;BME280;59889;50.700;5.440;2022-09-20T06:18:14;100771.35;;;22.96;31.60
72024;BME280;59889;50.700;5.440;2022-09-20T06:20:31;100775.02;;;22.97;31.61
72024;BME280;59889;50.700;5.440;2022-09-20T06:22:54;100773.91;;;23.14;31.65
72024;BME280;59889;50.700;5.440;2022-09-20T06:25:20;100776.49;;;22.92;31.62
72024;BME280;59889;50.700;5.440;2022-09-20T06:27:46;100779.61;;;23.19;31.55
72024;BME280;59889;50.700;5.440;2022-09-20T06:30:13;100782.58;;;22.84;31.67
72024;BME280;59889;50.700;5.440;2022-09-20T06:32:33;100782.30;;;22.60;31.66
72024;BME280;59889;50.700;5.440;2022-09-20T06:34:58;100783.11;;;22.82;31.65
72024;BME280;59889;50.700;5.440;2022-09-20T06:37:35;100782.74;;;23.05;31.64
72024;BME280;59889;50.700;5.440;2022-09-20T06:40:24;100781.48;;;23.09;31.64
72024;BME280;59889;50.700;5.440;2022-09-20T06:42:23;100779.30;;;23.18;31.68
72024;BME280;59889;50.700;5.440;2022-09-20T06:44:38;100775.88;;;23.23;31.68
72024;BME280;59889;50.700;5.440;2022-09-20T06:47:03;100778.88;;;23.06;31.65
72024;BME280;59889;50.700;5.440;2022-09-20T06:49:38;100782.06;;;23.07;31.65
72024;BME280;59889;50.700;5.440;2022-09-20T06:51:53;100783.40;;;22.77;31.67
72024;BME280;59889;50.700;5.440;2022-09-20T06:54:19;100787.30;;;22.80;31.67
72024;BME280;59889;50.700;5.440;2022-09-20T06:56:44;100786.29;;;22.90;31.56
72024;BME280;59889;50.700;5.440;2022-09-20T06:59:08;100786.26;;;23.36;31.64
72024;BME280;59889;50.700;5.440;2022-09-20T07:01:34;100787.97;;;22.90;31.68
72024;BME280;59889;50.700;5.440;2022-09-20T07:03:58;100790.18;;;22.79;31.84
72024;BME280;59889;50.700;5.440;2022-09-20T07:06:23;100790.24;;;23.27;31.56
72024;BME280;59889;50.700;5.440;2022-09-20T07:08:49;100792.19;;;23.55;30.94
72024;BME280;59889;50.700;5.440;2022-09-20T07:11:15;100791.23;;;24.75;29.60
72024;BME280;59889;50.700;5.440;2022-09-20T07:13:39;100793.34;;;25.42;28.34
72024;BME280;59889;50.700;5.440;2022-09-20T07:16:05;100797.46;;;25.92;27.77
72024;BME280;59889;50.700;5.440;2022-09-20T07:18:29;100798.20;;;26.66;26.31
72024;BME280;59889;50.700;5.440;2022-09-20T07:20:54;100799.47;;;27.92;24.75
72024;BME280;59889;50.700;5.440;2022-09-20T07:23:19;100805.14;;;28.45;24.06
72024;BME280;59889;50.700;5.440;2022-09-20T07:25:44;100800.98;;;27.92;24.49
72024;BME280;59889;50.700;5.440;2022-09-20T07:28:09;100798.80;;;26.03;26.78
72024;BME280;59889;50.700;5.440;2022-09-20T07:30:34;100796.60;;;24.87;28.26
72024;BME280;59889;50.700;5.440;2022-09-20T07:32:59;100798.40;;;24.46;29.37
72024;BME280;59889;50.700;5.440;2022-09-20T07:35:25;100797.50;;;23.78;30.08
72024;BME280;59889;50.700;5.440;2022-09-20T07:37:55;100798.91;;;23.69;30.47
72024;BME280;59889;50.700;5.440;2022-09-20T07:40:15;100802.09;;;23.55;30.87
72024;BME280;59889;50.700;5.440;2022-09-20T07:42:40;100804.84;;;23.30;30.97
72024;BME280;59889;50.700;5.440;2022-09-20T07:45:06;100805.28;;;23.37;31.14
72024;BME280;59889;50.700;5.440;2022-09-20T07:47:30;100809.03;;;23.30;31.20
72024;BME280;59889;50.700;5.440;2022-09-20T07:49:55;100810.78;;;22.81;31.64
72024;BME280;59889;50.700;5.440;2022-09-20T07:52:20;100810.53;;;22.87;31.70
72024;BME280;59889;50.700;5.440;2022-09-20T07:54:45;100816.75;;;23.01;31.61
72024;BME280;59889;50.700;5.440;2022-09-20T07:57:10;100817.96;;;23.03;31.58
72024;BME280;59889;50.700;5.440;2022-09-20T07:59:36;100817.01;;;23.32;31.53
72024;BME280;59889;50.700;5.440;2022-09-20T08:02:00;100820.31;;;23.05;31.60
72024;BME280;59889;50.700;5.440;2022-09-20T08:04:26;100824.19;;;23.27;31.62
72024;BME280;59889;50.700;5.440;2022-09-20T08:06:51;100827.41;;;22.97;31.57
72024;BME280;59889;50.700;5.440;2022-09-20T08:09:16;100830.91;;;22.65;31.93
72024;BME280;59889;50.700;5.440;2022-09-20T08:11:41;100835.18;;;22.86;31.77
72024;BME280;59889;50.700;5.440;2022-09-20T08:14:07;100842.24;;;22.97;31.91
72024;BME280;59889;50.700;5.440;2022-09-20T08:16:31;100843.88;;;22.78;31.83
72024;BME280;59889;50.700;5.440;2022-09-20T08:18:58;100845.13;;;22.88;32.00
72024;BME280;59889;50.700;5.440;2022-09-20T08:21:21;100847.81;;;22.86;31.76
72024;BME280;59889;50.700;5.440;2022-09-20T08:23:46;100849.90;;;23.30;31.77
72024;BME280;59889;50.700;5.440;2022-09-20T08:26:13;100850.81;;;22.76;31.81
72024;BME280;59889;50.700;5.440;2022-09-20T08:28:37;100853.35;;;22.95;31.88
72024;BME280;59889;50.700;5.440;2022-09-20T08:31:02;100854.47;;;22.81;31.76
72024;BME280;59889;50.700;5.440;2022-09-20T08:33:26;100856.78;;;23.25;31.77
72024;BME280;59889;50.700;5.440;2022-09-20T08:35:51;100856.62;;;22.82;31.71
72024;BME280;59889;50.700;5.440;2022-09-20T08:38:16;100859.23;;;22.81;31.72
72024;BME280;59889;50.700;5.440;2022-09-20T08:40:41;100859.45;;;23.00;31.78
72024;BME280;59889;50.700;5.440;2022-09-20T08:43:08;100864.55;;;22.70;31.83
72024;BME280;59889;50.700;5.440;2022-09-20T08:45:31;100865.88;;;23.02;31.73
72024;BME280;59889;50.700;5.440;2022-09-20T08:47:58;100867.86;;;22.88;31.87
72024;BME280;59889;50.700;5.440;2022-09-20T08:50:22;100867.38;;;22.72;31.79
72024;BME280;59889;50.700;5.440;2022-09-20T08:52:48;100871.68;;;22.97;31.77
72024;BME280;59889;50.700;5.440;2022-09-20T08:55:14;100873.27;;;23.26;31.72
72024;BME280;59889;50.700;5.440;2022-09-20T08:57:36;100872.28;;;23.01;31.74
72024;BME280;59889;50.700;5.440;2022-09-20T09:00:04;100874.81;;;23.19;31.77
72024;BME280;59889;50.700;5.440;2022-09-20T09:02:30;100874.21;;;23.21;31.78
72024;BME280;59889;50.700;5.440;2022-09-20T09:04:52;100874.81;;;23.12;31.87
72024;BME280;59889;50.700;5.440;2022-09-20T09:07:18;100875.80;;;22.74;32.03
72024;BME280;59889;50.700;5.440;2022-09-20T09:09:43;100875.20;;;22.64;31.87
72024;BME280;59889;50.700;5.440;2022-09-20T09:12:14;100874.51;;;23.16;31.84
72024;BME280;59889;50.700;5.440;2022-09-20T09:14:33;100876.29;;;22.98;32.01
72024;BME280;59889;50.700;5.440;2022-09-20T09:16:57;100877.83;;;23.20;31.77
72024;BME280;59889;50.700;5.440;2022-09-20T09:19:27;100877.64;;;23.13;31.85
72024;BME280;59889;50.700;5.440;2022-09-20T09:21:47;100874.39;;;23.13;31.84
72024;BME280;59889;50.700;5.440;2022-09-20T09:24:16;100870.31;;;22.81;31.93
72024;BME280;59889;50.700;5.440;2022-09-20T09:26:38;100868.57;;;23.09;31.90
72024;BME280;59889;50.700;5.440;2022-09-20T09:29:08;100869.56;;;23.04;31.96
72024;BME280;59889;50.700;5.440;2022-09-20T09:31:28;100869.36;;;22.73;31.77
72024;BME280;59889;50.700;5.440;2022-09-20T09:33:52;100868.68;;;22.85;31.87
72024;BME280;59889;50.700;5.440;2022-09-20T09:36:21;100870.98;;;23.17;31.81
72024;BME280;59889;50.700;5.440;2022-09-20T09:38:44;100869.49;;;22.76;31.73
72024;BME280;59889;50.700;5.440;2022-09-20T09:41:21;100869.99;;;22.90;31.82
72024;BME280;59889;50.700;5.440;2022-09-20T09:43:34;100867.31;;;22.95;31.78
72024;BME280;59889;50.700;5.440;2022-09-20T09:48:24;100867.45;;;22.97;31.77
72024;BME280;59889;50.700;5.440;2022-09-20T09:50:48;100866.12;;;22.92;31.85
72024;BME280;59889;50.700;5.440;2022-09-20T09:53:14;100866.24;;;22.98;31.78
72024;BME280;59889;50.700;5.440;2022-09-20T09:55:54;100867.16;;;23.05;31.71
72024;BME280;59889;50.700;5.440;2022-09-20T09:58:06;100867.60;;;23.03;31.71
72024;BME280;59889;50.700;5.440;2022-09-20T10:00:29;100866.17;;;23.06;31.69
72024;BME280;59889;50.700;5.440;2022-09-20T10:03:04;100861.65;;;22.75;31.77
72024;BME280;59889;50.700;5.440;2022-09-20T10:05:21;100861.07;;;23.00;31.76
72024;BME280;59889;50.700;5.440;2022-09-20T10:07:48;100861.46;;;23.00;31.77
72024;BME280;59889;50.700;5.440;2022-09-20T10:10:18;100860.64;;;22.95;31.80
72024;BME280;59889;50.700;5.440;2022-09-20T10:12:43;100860.94;;;22.93;31.81
72024;BME280;59889;50.700;5.440;2022-09-20T10:15:10;100857.23;;;22.93;31.55
72024;BME280;59889;50.700;5.440;2022-09-20T10:17:33;100858.17;;;23.19;31.52
72024;BME280;59889;50.700;5.440;2022-09-20T10:19:59;100857.60;;;22.95;31.51
72024;BME280;59889;50.700;5.440;2022-09-20T10:22:19;100854.66;;;23.33;31.40
72024;BME280;59889;50.700;5.440;2022-09-20T10:24:43;100851.26;;;23.30;31.50
72024;BME280;59889;50.700;5.440;2022-09-20T10:27:17;100849.71;;;23.01;31.57
72024;BME280;59889;50.700;5.440;2022-09-20T10:29:38;100850.44;;;23.30;31.54
72024;BME280;59889;50.700;5.440;2022-09-20T10:31:59;100848.90;;;23.09;31.58
72024;BME280;59889;50.700;5.440;2022-09-20T10:34:33;100847.31;;;23.06;31.62
72024;BME280;59889;50.700;5.440;2022-09-20T10:36:48;100841.98;;;23.06;31.63
72024;BME280;59889;50.700;5.440;2022-09-20T10:39:12;100837.82;;;23.13;31.60
72024;BME280;59889;50.700;5.440;2022-09-20T10:41:44;100833.66;;;23.29;31.72
72024;BME280;59889;50.700;5.440;2022-09-20T10:44:07;100831.78;;;23.03;31.76
72024;BME280;59889;50.700;5.440;2022-09-20T10:46:30;100831.07;;;23.10;31.69
72024;BME280;59889;50.700;5.440;2022-09-20T10:48:55;100835.00;;;23.33;31.57
72024;BME280;59889;50.700;5.440;2022-09-20T10:51:21;100833.36;;;23.03;31.83
72024;BME280;59889;50.700;5.440;2022-09-20T10:53:45;100832.27;;;23.19;31.99
72024;BME280;59889;50.700;5.440;2022-09-20T10:56:14;100834.08;;;23.23;32.00
72024;BME280;59889;50.700;5.440;2022-09-20T11:00:59;100834.35;;;23.05;31.80
72024;BME280;59889;50.700;5.440;2022-09-20T11:03:31;100838.24;;;23.50;31.86
72024;BME280;59889;50.700;5.440;2022-09-20T11:05:54;100837.28;;;23.24;31.86
72024;BME280;59889;50.700;5.440;2022-09-20T11:08:12;100839.56;;;23.31;31.79
72024;BME280;59889;50.700;5.440;2022-09-20T11:10:37;100840.84;;;23.18;31.88
72024;BME280;59889;50.700;5.440;2022-09-20T11:13:01;100844.07;;;22.91;31.94
72024;BME280;59889;50.700;5.440;2022-09-20T11:15:28;100844.00;;;23.03;31.82
72024;BME280;59889;50.700;5.440;2022-09-20T11:17:57;100846.68;;;22.95;31.85
72024;BME280;59889;50.700;5.440;2022-09-20T11:20:18;100850.26;;;23.42;31.88
72024;BME280;59889;50.700;5.440;2022-09-20T11:22:43;100850.04;;;22.90;31.89
72024;BME280;59889;50.700;5.440;2022-09-20T11:25:12;100854.27;;;22.97;31.81
72024;BME280;59889;50.700;5.440;2022-09-20T11:27:31;100854.58;;;23.23;31.74
72024;BME280;59889;50.700;5.440;2022-09-20T11:29:58;100853.60;;;22.98;31.78
72024;BME280;59889;50.700;5.440;2022-09-20T11:32:23;100854.47;;;23.00;31.72
72024;BME280;59889;50.700;5.440;2022-09-20T11:34:50;100852.59;;;22.90;31.83
72024;BME280;59889;50.700;5.440;2022-09-20T11:37:09;100853.07;;;23.15;31.78
72024;BME280;59889;50.700;5.440;2022-09-20T11:39:38;100853.44;;;22.97;31.75
72024;BME280;59889;50.700;5.440;2022-09-20T11:42:00;100851.49;;;22.92;31.77
72024;BME280;59889;50.700;5.440;2022-09-20T11:44:25;100852.80;;;22.97;31.65
72024;BME280;59889;50.700;5.440;2022-09-20T11:46:54;100851.47;;;23.19;31.72
72024;BME280;59889;50.700;5.440;2022-09-20T11:49:18;100855.55;;;23.01;31.63
72024;BME280;59889;50.700;5.440;2022-09-20T11:51:57;100855.10;;;23.24;31.64
72024;BME280;59889;50.700;5.440;2022-09-20T11:54:17;100858.80;;;23.01;31.53
72024;BME280;59889;50.700;5.440;2022-09-20T11:56:31;100858.22;;;23.51;31.58
72024;BME280;59889;50.700;5.440;2022-09-20T11:58:57;100855.94;;;22.99;31.61
72024;BME280;59889;50.700;5.440;2022-09-20T12:01:25;100857.06;;;23.20;31.63
72024;BME280;59889;50.700;5.440;2022-09-20T12:03:50;100854.54;;;23.44;31.62
72024;BME280;59889;50.700;5.440;2022-09-20T12:06:20;100853.23;;;23.04;31.53
72024;BME280;59889;50.700;5.440;2022-09-20T12:08:37;100853.29;;;23.25;31.49
72024;BME280;59889;50.700;5.440;2022-09-20T12:11:03;100852.91;;;23.46;31.53
72024;BME280;59889;50.700;5.440;2022-09-20T12:13:25;100853.31;;;23.26;31.48
72024;BME280;59889;50.700;5.440;2022-09-20T12:15:56;100850.30;;;23.01;31.47
72024;BME280;59889;50.700;5.440;2022-09-20T12:18:27;100851.10;;;23.25;31.47
72024;BME280;59889;50.700;5.440;2022-09-20T12:20:57;100847.11;;;22.96;31.52
72024;BME280;59889;50.700;5.440;2022-09-20T12:25:36;100837.48;;;23.23;31.47
72024;BME280;59889;50.700;5.440;2022-09-20T12:27:56;100840.87;;;23.15;31.53
72024;BME280;59889;50.700;5.440;2022-09-20T12:30:21;100837.87;;;23.03;31.39
72024;BME280;59889;50.700;5.440;2022-09-20T12:32:48;100838.02;;;23.26;31.31
72024;BME280;59889;50.700;5.440;2022-09-20T12:37:35;100831.63;;;22.94;31.50
72024;BME280;59889;50.700;5.440;2022-09-20T12:40:01;100834.69;;;23.09;31.40
72024;BME280;59889;50.700;5.440;2022-09-20T12:42:28;100831.24;;;23.44;31.58
72024;BME280;59889;50.700;5.440;2022-09-20T12:44:58;100827.90;;;22.93;31.66
72024;BME280;59889;50.700;5.440;2022-09-20T12:47:19;100828.45;;;23.12;31.42
72024;BME280;59889;50.700;5.440;2022-09-20T12:49:48;100827.29;;;23.16;31.36
72024;BME280;59889;50.700;5.440;2022-09-20T12:52:20;100824.50;;;23.09;31.45
72024;BME280;59889;50.700;5.440;2022-09-20T12:54:31;100825.12;;;23.15;31.37
72024;BME280;59889;50.700;5.440;2022-09-20T12:59:24;100823.18;;;23.34;31.46
72024;BME280;59889;50.700;5.440;2022-09-20T13:01:46;100825.36;;;23.25;31.58
72024;BME280;59889;50.700;5.440;2022-09-20T13:06:36;100825.45;;;23.03;31.62
72024;BME280;59889;50.700;5.440;2022-09-20T13:09:03;100827.46;;;23.54;31.58
72024;BME280;59889;50.700;5.440;2022-09-20T13:11:29;100827.92;;;22.99;31.54
72024;BME280;59889;50.700;5.440;2022-09-20T13:13:55;100829.24;;;23.03;31.60
72024;BME280;59889;50.700;5.440;2022-09-20T13:16:19;100828.08;;;23.01;31.62